ADB2103 KOKC-KIAD
Flight info
| Callsign | ADB2103 |
|---|---|
| Flight time | N/A |
| Altitude | 33000 |
| Route | TRUPR3 DRLER FAM J78 DACOS JARLO GIBBZ5 |
| Aircraft | A225/J-VGDW/C |
Departure
| Time | 2026-04-28 00:12 |
|---|---|
| Airport | OKC Will Rogers World Airport (KOKC) |
Arrival
| Time | N/A |
|---|---|
| Airport | Washington Dulles International Airport (KIAD) |
| Time | Latitude | Longitude | Altitude | Speed | Heading |
|---|---|---|---|---|---|
| 2026-04-27 23:36 | 35.40087 | -97.61426 | 1290 ft | 0 kts | 179° |
| 2026-04-27 23:59 | 35.40082 | -97.61426 | 1280 ft | 3 kts | 180° |
| 2026-04-28 00:00 | 35.40057 | -97.61422 | 1295 ft | 4 kts | 165° |
| 2026-04-28 00:00 | 35.40032 | -97.61411 | 1290 ft | 4 kts | 159° |
| 2026-04-28 00:00 | 35.40017 | -97.61401 | 1291 ft | 0 kts | 146° |
| 2026-04-28 00:00 | 35.40008 | -97.61391 | 1292 ft | 4 kts | 134° |
| 2026-04-28 00:01 | 35.39996 | -97.61357 | 1295 ft | 6 kts | 98° |
| 2026-04-28 00:01 | 35.40021 | -97.61300 | 1300 ft | 8 kts | 46° |
| 2026-04-28 00:01 | 35.40061 | -97.61250 | 1300 ft | 10 kts | 45° |
| 2026-04-28 00:01 | 35.40117 | -97.61180 | 1299 ft | 13 kts | 45° |
| 2026-04-28 00:02 | 35.40177 | -97.61092 | 1300 ft | 11 kts | 76° |
| 2026-04-28 00:02 | 35.40156 | -97.61030 | 1301 ft | 7 kts | 135° |
| 2026-04-28 00:02 | 35.40118 | -97.60985 | 1301 ft | 9 kts | 135° |
| 2026-04-28 00:02 | 35.40067 | -97.60923 | 1301 ft | 11 kts | 135° |
| 2026-04-28 00:03 | 35.40013 | -97.60844 | 1302 ft | 13 kts | 129° |
| 2026-04-28 00:03 | 35.39958 | -97.60760 | 1303 ft | 12 kts | 129° |
| 2026-04-28 00:03 | 35.39896 | -97.60670 | 1301 ft | 16 kts | 130° |
| 2026-04-28 00:03 | 35.39813 | -97.60564 | 1300 ft | 18 kts | 136° |
| 2026-04-28 00:04 | 35.39719 | -97.60451 | 1298 ft | 20 kts | 135° |
| 2026-04-28 00:04 | 35.39510 | -97.60200 | 1300 ft | 21 kts | 136° |
| 2026-04-28 00:04 | 35.39406 | -97.60078 | 1302 ft | 21 kts | 137° |
| 2026-04-28 00:05 | 35.39303 | -97.59960 | 1302 ft | 20 kts | 136° |
| 2026-04-28 00:05 | 35.39223 | -97.59850 | 1302 ft | 14 kts | 112° |
| 2026-04-28 00:05 | 35.39216 | -97.59739 | 1302 ft | 14 kts | 90° |
| 2026-04-28 00:05 | 35.39216 | -97.59656 | 1302 ft | 15 kts | 90° |
| 2026-04-28 00:06 | 35.39217 | -97.59474 | 1305 ft | 15 kts | 90° |
| 2026-04-28 00:06 | 35.39216 | -97.59336 | 1304 ft | 18 kts | 90° |
| 2026-04-28 00:06 | 35.39217 | -97.59175 | 1302 ft | 19 kts | 89° |
| 2026-04-28 00:06 | 35.39191 | -97.59065 | 1301 ft | 9 kts | 164° |
| 2026-04-28 00:07 | 35.39121 | -97.59063 | 1301 ft | 11 kts | 180° |
| 2026-04-28 00:07 | 35.39041 | -97.59063 | 1302 ft | 12 kts | 179° |
| 2026-04-28 00:07 | 35.38956 | -97.59062 | 1303 ft | 13 kts | 180° |
| 2026-04-28 00:07 | 35.38854 | -97.59063 | 1301 ft | 16 kts | 180° |
| 2026-04-28 00:08 | 35.38728 | -97.59063 | 1301 ft | 19 kts | 180° |
| 2026-04-28 00:08 | 35.38596 | -97.59062 | 1303 ft | 19 kts | 179° |
| 2026-04-28 00:08 | 35.38454 | -97.59062 | 1303 ft | 22 kts | 180° |
| 2026-04-28 00:08 | 35.38291 | -97.59064 | 1302 ft | 24 kts | 180° |
| 2026-04-28 00:09 | 35.38131 | -97.59063 | 1304 ft | 23 kts | 180° |
| 2026-04-28 00:09 | 35.38071 | -97.59063 | 1303 ft | 4 kts | 180° |
| 2026-04-28 00:09 | 35.38024 | -97.59063 | 1302 ft | 9 kts | 180° |
| 2026-04-28 00:09 | 35.37947 | -97.59062 | 1301 ft | 13 kts | 180° |
| 2026-04-28 00:10 | 35.37870 | -97.59056 | 1302 ft | 8 kts | 155° |
| 2026-04-28 00:10 | 35.37843 | -97.59024 | 1302 ft | 3 kts | 115° |
| 2026-04-28 00:10 | 35.37837 | -97.58995 | 1302 ft | 7 kts | 96° |
| 2026-04-28 00:10 | 35.37841 | -97.58935 | 1302 ft | 6 kts | 66° |
| 2026-04-28 00:11 | 35.37878 | -97.58900 | 1302 ft | 7 kts | 16° |
| 2026-04-28 00:11 | 35.37896 | -97.58896 | 1302 ft | 0 kts | 4° |
| 2026-04-28 00:11 | 35.37951 | -97.58894 | 1301 ft | 35 kts | 1° |
| 2026-04-28 00:11 | 35.38426 | -97.58894 | 1301 ft | 100 kts | 359° |
| 2026-04-28 00:12 | 35.39307 | -97.58894 | 1350 ft | 147 kts | 1° |
| 2026-04-28 00:12 | 35.40346 | -97.58895 | 1918 ft | 144 kts | 2° |
| 2026-04-28 00:12 | 35.41325 | -97.58638 | 2504 ft | 147 kts | 17° |
| 2026-04-28 00:12 | 35.42331 | -97.58302 | 3086 ft | 151 kts | 13° |
| 2026-04-28 00:13 | 35.43357 | -97.57982 | 3642 ft | 154 kts | 13° |
| 2026-04-28 00:13 | 35.44409 | -97.57657 | 4194 ft | 157 kts | 12° |
| 2026-04-28 00:13 | 35.45497 | -97.57321 | 4654 ft | 167 kts | 12° |
| 2026-04-28 00:13 | 35.46731 | -97.56941 | 4859 ft | 204 kts | 12° |
| 2026-04-28 00:14 | 35.48240 | -97.56475 | 5048 ft | 239 kts | 12° |
| 2026-04-28 00:14 | 35.49983 | -97.55933 | 5081 ft | 276 kts | 13° |
| 2026-04-28 00:14 | 35.51879 | -97.55342 | 4951 ft | 285 kts | 12° |
| 2026-04-28 00:14 | 35.53782 | -97.54746 | 4825 ft | 278 kts | 13° |
| 2026-04-28 00:15 | 35.55608 | -97.53975 | 4680 ft | 277 kts | 27° |
| 2026-04-28 00:15 | 35.57048 | -97.52473 | 4951 ft | 274 kts | 50° |
| 2026-04-28 00:15 | 35.57951 | -97.50396 | 5195 ft | 285 kts | 71° |
| 2026-04-28 00:15 | 35.58394 | -97.48010 | 5355 ft | 286 kts | 81° |
| 2026-04-28 00:16 | 35.58714 | -97.45592 | 5543 ft | 286 kts | 81° |
| 2026-04-28 00:16 | 35.59112 | -97.43214 | 6139 ft | 286 kts | 78° |
| 2026-04-28 00:16 | 35.59607 | -97.40833 | 6672 ft | 293 kts | 77° |
| 2026-04-28 00:16 | 35.60116 | -97.38373 | 7228 ft | 298 kts | 78° |
| 2026-04-28 00:17 | 35.60588 | -97.35898 | 7808 ft | 302 kts | 79° |
| 2026-04-28 00:17 | 35.61066 | -97.33350 | 8388 ft | 307 kts | 78° |
| 2026-04-28 00:17 | 35.61561 | -97.30802 | 8994 ft | 311 kts | 78° |
| 2026-04-28 00:17 | 35.62069 | -97.28181 | 9626 ft | 316 kts | 78° |
| 2026-04-28 00:18 | 35.62571 | -97.25568 | 10202 ft | 321 kts | 78° |
| 2026-04-28 00:18 | 35.63091 | -97.22859 | 10795 ft | 325 kts | 78° |
| 2026-04-28 00:18 | 35.63609 | -97.20162 | 11386 ft | 330 kts | 77° |
| 2026-04-28 00:18 | 35.64145 | -97.17373 | 12008 ft | 335 kts | 77° |
| 2026-04-28 00:19 | 35.64685 | -97.14557 | 12648 ft | 340 kts | 76° |
| 2026-04-28 00:19 | 35.65226 | -97.11726 | 13307 ft | 344 kts | 76° |
| 2026-04-28 00:19 | 35.65773 | -97.08863 | 13912 ft | 350 kts | 76° |
| 2026-04-28 00:19 | 35.66334 | -97.05921 | 14512 ft | 354 kts | 76° |
| 2026-04-28 00:20 | 35.66902 | -97.02940 | 15146 ft | 359 kts | 76° |
| 2026-04-28 00:20 | 35.67471 | -96.99951 | 15772 ft | 363 kts | 76° |
| 2026-04-28 00:20 | 35.68051 | -96.96897 | 16430 ft | 368 kts | 76° |
| 2026-04-28 00:20 | 35.68636 | -96.93808 | 17100 ft | 372 kts | 76° |
| 2026-04-28 00:21 | 35.69221 | -96.90720 | 17775 ft | 375 kts | 76° |
| 2026-04-28 00:21 | 35.70034 | -96.87656 | 18344 ft | 377 kts | 62° |
| 2026-04-28 00:21 | 35.71307 | -96.84818 | 18914 ft | 377 kts | 55° |
| 2026-04-28 00:21 | 35.72668 | -96.82082 | 19510 ft | 379 kts | 55° |
| 2026-04-28 00:22 | 35.74000 | -96.79257 | 20094 ft | 381 kts | 57° |
| 2026-04-28 00:22 | 35.75280 | -96.76376 | 20664 ft | 383 kts | 58° |
| 2026-04-28 00:22 | 35.76568 | -96.73535 | 21242 ft | 384 kts | 57° |
| 2026-04-28 00:22 | 35.77913 | -96.70663 | 21803 ft | 386 kts | 56° |
| 2026-04-28 00:23 | 35.79238 | -96.67816 | 22341 ft | 388 kts | 57° |
| 2026-04-28 00:23 | 35.80123 | -96.65882 | 22703 ft | 389 kts | 57° |
| 2026-04-28 00:23 | 35.81458 | -96.62949 | 23249 ft | 390 kts | 57° |
| 2026-04-28 00:23 | 35.83242 | -96.59065 | 23849 ft | 392 kts | 57° |
| 2026-04-28 00:24 | 35.84579 | -96.56164 | 24293 ft | 393 kts | 57° |
| 2026-04-28 00:24 | 35.85478 | -96.54202 | 24574 ft | 394 kts | 57° |
| 2026-04-28 00:24 | 35.86831 | -96.51238 | 25008 ft | 395 kts | 57° |
| 2026-04-28 00:24 | 35.88618 | -96.47329 | 25550 ft | 397 kts | 57° |
| 2026-04-28 00:25 | 35.89541 | -96.45313 | 25814 ft | 398 kts | 57° |
| 2026-04-28 00:25 | 35.90896 | -96.42349 | 26227 ft | 399 kts | 57° |
| 2026-04-28 00:25 | 35.92266 | -96.39345 | 26632 ft | 401 kts | 57° |
| 2026-04-28 00:25 | 35.93617 | -96.36380 | 27006 ft | 402 kts | 57° |
| 2026-04-28 00:26 | 35.95002 | -96.33339 | 27388 ft | 403 kts | 57° |
| 2026-04-28 00:26 | 35.96368 | -96.30340 | 27772 ft | 405 kts | 57° |
| 2026-04-28 00:26 | 35.97753 | -96.27291 | 28157 ft | 406 kts | 57° |
| 2026-04-28 00:26 | 35.99123 | -96.24275 | 28509 ft | 407 kts | 57° |
| 2026-04-28 00:27 | 36.00513 | -96.21213 | 28870 ft | 409 kts | 57° |
| 2026-04-28 00:27 | 36.01910 | -96.18133 | 29226 ft | 410 kts | 57° |
| 2026-04-28 00:27 | 36.03294 | -96.15077 | 29578 ft | 411 kts | 57° |
| 2026-04-28 00:27 | 36.04702 | -96.11966 | 29894 ft | 413 kts | 57° |
| 2026-04-28 00:28 | 36.06112 | -96.08847 | 30170 ft | 414 kts | 57° |
| 2026-04-28 00:28 | 36.07511 | -96.05752 | 30431 ft | 416 kts | 57° |
| 2026-04-28 00:28 | 36.08926 | -96.02617 | 30704 ft | 417 kts | 57° |
| 2026-04-28 00:28 | 36.10330 | -95.99502 | 30983 ft | 418 kts | 57° |
| 2026-04-28 00:29 | 36.11754 | -95.96340 | 31227 ft | 420 kts | 57° |
| 2026-04-28 00:29 | 36.13167 | -95.93201 | 31490 ft | 421 kts | 57° |
| 2026-04-28 00:29 | 36.14601 | -95.90013 | 31737 ft | 422 kts | 57° |
| 2026-04-28 00:29 | 36.16013 | -95.86869 | 31982 ft | 423 kts | 57° |
| 2026-04-28 00:30 | 36.17454 | -95.83658 | 32227 ft | 424 kts | 57° |
| 2026-04-28 00:30 | 36.18885 | -95.80467 | 32477 ft | 425 kts | 57° |
| 2026-04-28 00:30 | 36.20176 | -95.77120 | 32656 ft | 430 kts | 66° |
| 2026-04-28 00:30 | 36.21190 | -95.73662 | 32861 ft | 433 kts | 69° |
| 2026-04-28 00:31 | 36.22165 | -95.70101 | 32978 ft | 437 kts | 69° |
| 2026-04-28 00:31 | 36.24293 | -95.62967 | 33028 ft | 450 kts | 67° |
| 2026-04-28 00:32 | 36.26450 | -95.55554 | 33018 ft | 465 kts | 68° |
| 2026-04-28 00:32 | 36.28680 | -95.47918 | 33016 ft | 478 kts | 68° |
| 2026-04-28 00:33 | 36.30966 | -95.40075 | 33018 ft | 490 kts | 68° |
| 2026-04-28 00:33 | 36.33307 | -95.31988 | 33008 ft | 501 kts | 68° |
| 2026-04-28 00:34 | 36.35693 | -95.23760 | 32993 ft | 511 kts | 68° |
| 2026-04-28 00:34 | 36.38089 | -95.15440 | 32979 ft | 520 kts | 68° |
| 2026-04-28 00:35 | 36.40534 | -95.06947 | 32959 ft | 521 kts | 68° |
| 2026-04-28 00:35 | 36.42965 | -94.98459 | 32988 ft | 521 kts | 68° |
| 2026-04-28 00:36 | 36.45394 | -94.89967 | 32998 ft | 521 kts | 69° |
| 2026-04-28 00:36 | 36.47810 | -94.81486 | 33007 ft | 521 kts | 69° |
| 2026-04-28 00:37 | 36.50215 | -94.73020 | 32986 ft | 521 kts | 69° |
| 2026-04-28 00:37 | 36.52615 | -94.64543 | 32988 ft | 521 kts | 69° |
| 2026-04-28 00:38 | 36.55012 | -94.56053 | 32979 ft | 521 kts | 69° |
| 2026-04-28 00:38 | 36.57414 | -94.47515 | 32969 ft | 521 kts | 69° |
| 2026-04-28 00:39 | 36.59798 | -94.39013 | 32959 ft | 521 kts | 69° |
| 2026-04-28 00:39 | 36.62169 | -94.30538 | 32966 ft | 521 kts | 69° |
| 2026-04-28 00:40 | 36.64550 | -94.21994 | 32968 ft | 521 kts | 69° |
| 2026-04-28 00:40 | 36.66917 | -94.13474 | 32970 ft | 520 kts | 69° |
| 2026-04-28 00:41 | 36.69272 | -94.04974 | 32987 ft | 520 kts | 69° |
| 2026-04-28 00:41 | 36.71634 | -93.96417 | 32980 ft | 520 kts | 69° |
| 2026-04-28 00:42 | 36.73979 | -93.87899 | 32990 ft | 520 kts | 69° |
| 2026-04-28 00:42 | 36.76319 | -93.79367 | 32973 ft | 520 kts | 69° |
| 2026-04-28 00:43 | 36.78653 | -93.70832 | 32949 ft | 519 kts | 69° |
| 2026-04-28 00:43 | 36.80967 | -93.62341 | 32964 ft | 519 kts | 69° |
| 2026-04-28 00:44 | 36.83286 | -93.53806 | 32990 ft | 519 kts | 69° |
| 2026-04-28 00:44 | 36.85587 | -93.45310 | 32990 ft | 519 kts | 69° |
| 2026-04-28 00:45 | 36.87905 | -93.36723 | 32984 ft | 518 kts | 69° |
| 2026-04-28 00:45 | 36.90199 | -93.28197 | 32979 ft | 518 kts | 69° |
| 2026-04-28 00:46 | 36.92475 | -93.19709 | 32965 ft | 518 kts | 69° |
| 2026-04-28 00:46 | 36.94758 | -93.11170 | 32948 ft | 518 kts | 69° |
| 2026-04-28 00:47 | 36.97036 | -93.02620 | 32944 ft | 517 kts | 69° |
| 2026-04-28 00:47 | 36.99304 | -92.94079 | 32944 ft | 517 kts | 69° |
| 2026-04-28 00:48 | 37.01564 | -92.85538 | 32935 ft | 517 kts | 69° |
| 2026-04-28 00:48 | 37.03816 | -92.77005 | 32930 ft | 516 kts | 70° |
| 2026-04-28 00:49 | 37.06060 | -92.68467 | 32923 ft | 515 kts | 70° |
| 2026-04-28 00:49 | 37.08293 | -92.59950 | 32946 ft | 514 kts | 70° |
| 2026-04-28 00:50 | 37.10513 | -92.51449 | 32934 ft | 513 kts | 70° |
| 2026-04-28 00:50 | 37.12712 | -92.43003 | 32936 ft | 513 kts | 70° |
| 2026-04-28 00:51 | 37.14917 | -92.34505 | 32930 ft | 512 kts | 70° |
| 2026-04-28 00:51 | 37.17114 | -92.26007 | 32927 ft | 511 kts | 70° |
| 2026-04-28 00:52 | 37.19304 | -92.17513 | 32935 ft | 511 kts | 70° |
| 2026-04-28 00:52 | 37.21481 | -92.09035 | 32933 ft | 510 kts | 71° |
| 2026-04-28 00:53 | 37.23652 | -92.00559 | 32924 ft | 510 kts | 71° |
| 2026-04-28 00:53 | 37.25813 | -91.92088 | 32914 ft | 508 kts | 71° |
| 2026-04-28 00:54 | 37.27948 | -91.83690 | 32924 ft | 507 kts | 71° |
| 2026-04-28 00:54 | 37.30087 | -91.75253 | 32920 ft | 505 kts | 71° |